Terminal Aerodrome Forecast
Issued by NWS

Home | Current Version | Previous Version | Text Only | Print | Product List | Glossary On
Versions: 1 2 3 4 5 6 7 8 9 10 11 12 13
000
FTUS43 KEAX 211121
TAFSTJ
TAF
KSTJ 211121Z 2112/2212 16006KT P6SM SCT060
     FM211600 17015G23KT P6SM FEW060 BKN250
     FM220100 17011KT P6SM SCT250=

USA.gov is the U.S. government's official web portal to all federal, state and local government web resources and services.